createdAt,value
2019-03-10T00:02:57.561Z,101169.77
2019-03-10T00:06:20.975Z,101164.03
2019-03-10T00:09:44.404Z,101153.68
2019-03-10T00:13:08.051Z,101135.20
2019-03-10T00:16:31.729Z,101128.44
2019-03-10T00:19:55.721Z,101115.65
2019-03-10T00:23:19.634Z,101113.48
2019-03-10T00:26:43.189Z,101118.23
2019-03-10T00:30:07.106Z,101118.08
2019-03-10T00:33:31.648Z,101109.23
2019-03-10T00:36:54.852Z,101104.04
2019-03-10T00:41:15.669Z,101109.30
2019-03-10T00:45:46.725Z,101106.83
2019-03-10T00:53:38.098Z,101091.47
2019-03-10T01:01:28.864Z,101098.17
2019-03-10T01:04:52.513Z,101098.33
2019-03-10T01:08:15.725Z,101086.45
2019-03-10T01:11:39.315Z,101074.25
2019-03-10T01:15:02.731Z,101079.73
2019-03-10T01:18:26.428Z,101063.89
2019-03-10T01:21:50.172Z,101048.90
2019-03-10T01:25:13.737Z,101041.30
2019-03-10T01:28:36.966Z,101020.44
2019-03-10T01:32:41.479Z,101019.39
2019-03-10T01:36:13.621Z,101001.97
2019-03-10T01:39:36.802Z,100999.08
2019-03-10T01:43:00.076Z,100992.16
2019-03-10T01:46:23.235Z,100989.13
2019-03-10T01:49:46.366Z,100989.42
2019-03-10T01:53:09.509Z,100975.77
2019-03-10T01:56:32.649Z,100972.59
2019-03-10T01:59:56.062Z,100961.34
2019-03-10T02:03:19.404Z,100955.58
2019-03-10T02:06:42.521Z,100950.75
2019-03-10T02:10:06.949Z,100930.25
2019-03-10T02:13:30.052Z,100917.52
2019-03-10T02:16:53.605Z,100906.59
2019-03-10T02:20:17.516Z,100889.41
2019-03-10T02:23:40.752Z,100884.69
2019-03-10T02:27:03.834Z,100877.56
2019-03-10T02:30:27.120Z,100855.81
2019-03-10T02:33:50.429Z,100845.94
2019-03-10T02:37:13.555Z,100835.99
2019-03-10T02:40:36.900Z,100829.40
2019-03-10T02:44:01.034Z,100815.23
2019-03-10T02:47:24.150Z,100811.50
2019-03-10T02:50:47.218Z,100798.42
2019-03-10T02:54:10.302Z,100801.39
2019-03-10T02:57:33.549Z,100791.31
2019-03-10T03:00:56.674Z,100775.09
2019-03-10T03:04:20.207Z,100767.82
2019-03-10T03:07:43.497Z,100768.23
2019-03-10T03:11:06.651Z,100751.09
2019-03-10T03:14:30.206Z,100740.78
2019-03-10T03:17:53.490Z,100733.03
2019-03-10T03:21:16.670Z,100718.05
2019-03-10T03:24:39.756Z,100711.16
2019-03-10T03:28:02.984Z,100704.61
2019-03-10T03:31:29.137Z,100694.82
2019-03-10T03:34:52.246Z,100686.84
2019-03-10T03:38:17.957Z,100683.05
2019-03-10T03:41:41.126Z,100678.38
2019-03-10T03:45:04.754Z,100673.89
2019-03-10T03:48:28.029Z,100655.84
2019-03-10T03:51:51.267Z,100647.42
2019-03-10T03:55:14.406Z,100641.50
2019-03-10T03:58:37.535Z,100627.13
2019-03-10T04:02:06.513Z,100607.25
2019-03-10T04:05:29.594Z,100605.02
2019-03-10T04:08:52.827Z,100598.09
2019-03-10T04:12:16.088Z,100585.61
2019-03-10T04:15:39.298Z,100567.20
2019-03-10T04:19:02.458Z,100549.63
2019-03-10T04:22:25.955Z,100544.75
2019-03-10T04:25:49.043Z,100535.26
2019-03-10T04:29:12.484Z,100526.91
2019-03-10T04:32:35.547Z,100520.58
2019-03-10T04:35:58.640Z,100511.73
2019-03-10T04:39:21.731Z,100513.77
2019-03-10T04:42:44.956Z,100499.95
2019-03-10T04:46:08.061Z,100488.81
2019-03-10T04:49:32.211Z,100474.91
2019-03-10T04:52:55.291Z,100470.77
2019-03-10T04:56:38.076Z,100465.19
2019-03-10T05:00:01.313Z,100445.28
2019-03-10T05:03:24.586Z,100437.40
2019-03-10T05:06:47.671Z,100430.63
2019-03-10T05:10:10.787Z,100422.35
2019-03-10T05:13:33.974Z,100420.09
2019-03-10T05:16:57.088Z,100413.87
2019-03-10T05:20:20.205Z,100398.77
2019-03-10T05:23:44.406Z,100388.94
2019-03-10T05:27:07.554Z,100374.00
2019-03-10T05:30:30.640Z,100360.56
2019-03-10T05:33:54.049Z,100346.80
2019-03-10T05:37:17.148Z,100341.06
2019-03-10T05:40:40.791Z,100327.05
2019-03-10T05:44:05.199Z,100307.02
2019-03-10T05:47:28.351Z,100307.08
2019-03-10T05:50:51.618Z,100291.73
2019-03-10T05:54:14.693Z,100268.13
2019-03-10T05:57:37.897Z,100260.94
2019-03-10T06:01:00.974Z,100250.42
2019-03-10T06:04:24.358Z,100239.08
2019-03-10T06:07:47.476Z,100216.14
2019-03-10T06:11:10.688Z,100218.02
2019-03-10T06:14:34.066Z,100219.33
2019-03-10T06:17:57.170Z,100212.73
2019-03-10T06:21:20.265Z,100206.95
2019-03-10T06:24:43.351Z,100198.28
2019-03-10T06:28:06.742Z,100191.03
2019-03-10T06:31:29.963Z,100191.00
2019-03-10T06:34:53.182Z,100171.23
2019-03-10T06:38:16.425Z,100164.81
2019-03-10T06:41:39.535Z,100156.36
2019-03-10T06:45:02.700Z,100142.97
2019-03-10T06:48:26.826Z,100137.90
2019-03-10T06:51:51.148Z,100115.75
2019-03-10T06:55:14.506Z,100111.32
2019-03-10T06:58:37.695Z,100102.56
2019-03-10T07:02:00.789Z,100087.91
2019-03-10T07:05:24.887Z,100067.60
2019-03-10T07:08:48.385Z,100065.35
2019-03-10T07:12:11.844Z,100057.69
2019-03-10T07:15:35.199Z,100047.15
2019-03-10T07:18:58.631Z,100032.78
2019-03-10T07:22:22.060Z,100033.42
2019-03-10T07:25:45.327Z,100029.07
2019-03-10T07:29:18.201Z,100012.84
2019-03-10T07:32:47.687Z,99976.53
2019-03-10T07:36:39.161Z,99993.57
2019-03-10T07:40:20.968Z,99990.25
2019-03-10T07:44:15.695Z,99957.81
2019-03-10T07:47:58.500Z,99950.60
2019-03-10T07:51:38.348Z,99931.15
2019-03-10T07:55:21.055Z,99947.09
2019-03-10T07:59:18.762Z,99933.18
2019-03-10T08:03:04.209Z,99918.17
2019-03-10T08:06:56.251Z,99921.36
2019-03-10T08:10:34.126Z,99937.70
2019-03-10T08:14:22.878Z,99912.48
2019-03-10T08:18:05.774Z,99951.52
2019-03-10T08:21:47.073Z,99916.36
2019-03-10T08:25:44.631Z,99917.37
2019-03-10T08:29:39.264Z,99921.59
2019-03-10T08:33:17.653Z,99915.19
2019-03-10T08:36:58.998Z,99893.98
2019-03-10T08:40:37.283Z,99881.26
2019-03-10T08:44:29.498Z,99879.63
2019-03-10T08:48:14.082Z,99877.39
2019-03-10T08:51:50.452Z,99867.28
2019-03-10T08:55:36.028Z,99865.78
2019-03-10T08:59:17.463Z,99860.45
2019-03-10T09:02:51.140Z,99852.28
2019-03-10T09:06:38.962Z,99837.06
2019-03-10T09:10:19.979Z,99833.98
2019-03-10T09:13:56.373Z,99830.86
2019-03-10T09:17:29.126Z,99819.68
2019-03-10T09:21:10.371Z,99809.45
2019-03-10T09:25:11.090Z,99793.31
2019-03-10T09:28:47.225Z,99780.06
2019-03-10T09:32:36.800Z,99773.59
2019-03-10T09:36:19.217Z,99759.20
2019-03-10T09:40:14.152Z,99757.04
2019-03-10T09:43:55.207Z,99749.25
2019-03-10T09:47:38.235Z,99737.70
2019-03-10T09:51:27.092Z,99735.52
2019-03-10T09:55:08.485Z,99729.97
2019-03-10T09:58:46.546Z,99729.48
2019-03-10T10:02:19.787Z,99720.59
2019-03-10T10:05:51.608Z,99713.36
2019-03-10T10:09:49.510Z,99710.57
2019-03-10T10:13:34.962Z,99706.03
2019-03-10T10:17:13.777Z,99695.89
2019-03-10T10:21:02.447Z,99695.17
2019-03-10T10:24:48.210Z,99684.72
2019-03-10T10:28:30.915Z,99689.92
2019-03-10T10:32:05.487Z,99682.48
2019-03-10T10:35:58.596Z,99682.53
2019-03-10T10:39:36.128Z,99670.50
2019-03-10T10:43:20.085Z,99673.84
2019-03-10T10:47:03.486Z,99653.94
2019-03-10T10:50:55.252Z,99643.23
2019-03-10T10:54:36.014Z,99636.89
2019-03-10T10:58:09.378Z,99653.96
2019-03-10T11:02:01.170Z,99657.65
2019-03-10T11:05:43.885Z,99645.48
2019-03-10T11:09:26.609Z,99641.70
2019-03-10T11:13:07.622Z,99638.87
2019-03-10T11:16:49.115Z,99630.11
2019-03-10T11:20:30.715Z,99643.26
2019-03-10T11:24:11.766Z,99644.36
2019-03-10T11:27:49.885Z,99670.09
2019-03-10T11:31:35.146Z,99635.83
2019-03-10T11:35:35.948Z,99649.86
2019-03-10T11:39:21.528Z,99672.27
2019-03-10T11:42:58.810Z,99657.42
2019-03-10T11:46:47.348Z,99654.44
2019-03-10T11:50:36.163Z,99645.63
2019-03-10T11:54:28.237Z,99636.61
2019-03-10T11:58:22.896Z,99632.22
2019-03-10T12:01:51.216Z,99654.98
2019-03-10T12:05:34.304Z,99632.12
2019-03-10T12:09:15.879Z,99637.47
2019-03-10T12:12:39.161Z,99661.23
2019-03-10T12:16:02.718Z,99639.60
2019-03-10T12:19:26.139Z,99626.42
2019-03-10T12:22:49.772Z,99656.20
2019-03-10T12:26:12.950Z,99674.75
2019-03-10T12:29:36.057Z,99685.44
2019-03-10T12:32:59.512Z,99637.45
2019-03-10T12:36:22.834Z,99656.02
2019-03-10T12:39:46.466Z,99654.48
2019-03-10T12:43:10.012Z,99673.76
2019-03-10T12:46:33.226Z,99662.50
2019-03-10T12:49:56.511Z,99679.31
2019-03-10T12:53:19.617Z,99680.03
2019-03-10T12:56:42.801Z,99681.74
2019-03-10T13:00:07.332Z,99678.09
2019-03-10T13:03:32.188Z,99689.66
2019-03-10T13:06:55.303Z,99690.96
2019-03-10T13:10:18.608Z,99705.69
2019-03-10T13:13:41.985Z,99727.50
2019-03-10T13:17:05.167Z,99691.25
2019-03-10T13:20:28.825Z,99708.34
2019-03-10T13:23:55.095Z,99710.83
2019-03-10T13:27:19.456Z,99743.30
2019-03-10T13:30:42.952Z,99742.33
2019-03-10T13:34:09.823Z,99762.19
2019-03-10T13:37:33.518Z,99754.34
2019-03-10T13:40:56.919Z,99764.98
2019-03-10T13:44:21.628Z,99785.29
2019-03-10T13:47:45.894Z,99827.38
2019-03-10T13:51:09.233Z,99862.64
2019-03-10T13:54:32.804Z,99834.80
2019-03-10T13:57:56.031Z,99832.87
2019-03-10T14:01:19.351Z,99857.30
2019-03-10T14:04:43.176Z,99843.56
2019-03-10T14:08:08.423Z,99838.78
2019-03-10T14:11:32.218Z,99871.02
2019-03-10T14:14:55.665Z,99860.86
2019-03-10T14:18:19.179Z,99890.11
2019-03-10T14:21:44.676Z,99897.08
2019-03-10T14:25:10.566Z,99916.31
2019-03-10T14:28:34.262Z,99942.36
2019-03-10T14:31:57.932Z,99945.16
2019-03-10T14:35:21.737Z,99974.77
2019-03-10T14:38:45.389Z,99971.55
2019-03-10T14:42:08.782Z,99984.33
2019-03-10T14:45:31.939Z,99970.78
2019-03-10T14:48:55.206Z,99993.02
2019-03-10T14:52:27.321Z,100019.80
2019-03-10T14:55:50.508Z,100039.15
2019-03-10T14:59:13.742Z,100044.53
2019-03-10T15:02:36.999Z,100072.67
2019-03-10T15:06:00.226Z,100070.70
2019-03-10T15:09:24.502Z,100084.83
2019-03-10T15:12:47.974Z,100062.58
2019-03-10T15:16:11.155Z,100095.38
2019-03-10T15:19:35.707Z,100127.06
2019-03-10T15:22:59.049Z,100115.87
2019-03-10T15:26:22.331Z,100133.10
2019-03-10T15:29:45.478Z,100185.02
2019-03-10T15:33:08.610Z,100180.40
2019-03-10T15:36:32.795Z,100191.80
2019-03-10T15:39:56.780Z,100200.18
2019-03-10T15:43:20.220Z,100265.14
2019-03-10T15:46:43.400Z,100274.02
2019-03-10T15:50:12.084Z,100258.91
2019-03-10T15:53:35.285Z,100283.33
2019-03-10T15:56:58.403Z,100331.25
2019-03-10T16:00:22.151Z,100317.44
2019-03-10T16:03:45.690Z,100343.64
2019-03-10T16:07:08.907Z,100368.94
2019-03-10T16:10:32.184Z,100387.27
2019-03-10T16:13:55.327Z,100401.20
2019-03-10T16:17:18.594Z,100437.60
2019-03-10T16:20:41.742Z,100471.25
2019-03-10T16:24:05.319Z,100515.08
2019-03-10T16:27:28.502Z,100513.80
2019-03-10T16:30:52.013Z,100528.36
2019-03-10T16:34:15.633Z,100543.20
2019-03-10T16:37:38.782Z,100561.02
2019-03-10T16:41:02.881Z,100573.30
2019-03-10T16:44:25.988Z,100590.80
2019-03-10T16:47:50.431Z,100616.52
2019-03-10T16:51:13.709Z,100616.13
2019-03-10T16:54:36.923Z,100610.29
2019-03-10T16:58:00.292Z,100633.84
2019-03-10T17:01:23.533Z,100664.14
2019-03-10T17:04:46.658Z,100656.55
2019-03-10T17:08:10.211Z,100670.02
2019-03-10T17:11:33.681Z,100687.95
2019-03-10T17:14:56.780Z,100686.81
2019-03-10T17:18:19.879Z,100695.52
2019-03-10T17:21:43.158Z,100696.98
2019-03-10T17:25:06.524Z,100707.38
2019-03-10T17:28:29.824Z,100715.87
2019-03-10T17:31:53.352Z,100719.78
2019-03-10T17:35:17.064Z,100716.62
2019-03-10T17:38:40.231Z,100726.66
2019-03-10T17:42:03.366Z,100731.54
2019-03-10T17:45:27.584Z,100745.66
2019-03-10T17:48:51.104Z,100749.47
2019-03-10T17:52:14.874Z,100751.02
2019-03-10T17:55:38.582Z,100753.14
2019-03-10T17:59:01.917Z,100758.94
2019-03-10T18:02:27.029Z,100763.00
2019-03-10T18:05:50.385Z,100764.88
2019-03-10T18:09:13.637Z,100795.35
2019-03-10T18:12:36.908Z,100771.12
2019-03-10T18:16:00.477Z,100785.08
2019-03-10T18:19:24.012Z,100796.27
2019-03-10T18:22:47.326Z,100804.27
2019-03-10T18:26:10.567Z,100827.18
2019-03-10T18:29:33.726Z,100831.25
2019-03-10T18:32:57.080Z,100864.37
2019-03-10T18:36:20.397Z,100855.45
2019-03-10T18:39:43.987Z,100868.09
2019-03-10T18:43:07.342Z,100872.27
2019-03-10T18:46:30.563Z,100893.00
2019-03-10T18:49:55.449Z,100889.42
2019-03-10T18:53:18.889Z,100904.36
2019-03-10T18:56:42.137Z,100920.03
2019-03-10T19:00:07.183Z,100928.07
2019-03-10T19:03:31.004Z,100923.72
2019-03-10T19:06:54.250Z,100941.09
2019-03-10T19:10:17.558Z,100954.02
2019-03-10T19:13:41.173Z,100966.84
2019-03-10T19:17:04.797Z,100977.16
2019-03-10T19:20:27.941Z,100979.09
2019-03-10T19:23:51.236Z,101000.98
2019-03-10T19:27:15.441Z,101007.89
2019-03-10T19:30:39.891Z,101010.10
2019-03-10T19:34:03.892Z,101025.55
2019-03-10T19:37:27.874Z,101031.17
2019-03-10T19:40:54.220Z,101044.85
2019-03-10T19:44:17.926Z,101044.27
2019-03-10T19:47:41.310Z,101050.75
2019-03-10T19:51:04.847Z,101052.20
2019-03-10T19:54:28.172Z,101058.30
2019-03-10T19:57:51.347Z,101075.21
2019-03-10T20:01:15.205Z,101097.20
2019-03-10T20:04:38.427Z,101138.84
2019-03-10T20:08:03.251Z,101130.00
2019-03-10T20:11:26.675Z,101150.41
2019-03-10T20:14:50.365Z,101089.05
2019-03-10T20:18:14.191Z,101100.76
2019-03-10T20:21:37.522Z,101090.92
2019-03-10T20:25:01.028Z,101104.69
2019-03-10T20:28:24.464Z,101097.41
2019-03-10T20:31:47.743Z,101101.42
2019-03-10T20:35:11.261Z,101104.89
2019-03-10T20:38:34.784Z,101118.64
2019-03-10T20:42:05.196Z,101116.67
2019-03-10T20:45:32.043Z,101116.70
2019-03-10T20:48:55.400Z,101099.92
2019-03-10T20:52:18.619Z,101093.41
2019-03-10T20:55:42.529Z,101096.34
2019-03-10T20:59:09.439Z,101088.05
2019-03-10T21:02:33.044Z,101094.30
2019-03-10T21:05:56.410Z,101098.80
2019-03-10T21:09:19.611Z,101107.11
2019-03-10T21:12:43.040Z,101107.90
2019-03-10T21:16:06.596Z,101099.77
2019-03-10T21:19:29.736Z,101105.54
2019-03-10T21:22:53.157Z,101105.64
2019-03-10T21:26:19.501Z,101100.53
2019-03-10T21:29:44.070Z,101096.88
2019-03-10T21:33:07.253Z,101112.77
2019-03-10T21:36:30.547Z,101110.22
2019-03-10T21:39:53.775Z,101122.08
2019-03-10T21:43:16.921Z,101135.86
2019-03-10T21:46:40.304Z,101128.40
2019-03-10T21:50:04.661Z,101128.80
2019-03-10T21:53:28.278Z,101127.80
2019-03-10T21:56:52.872Z,101129.03
2019-03-10T22:00:16.136Z,101136.41
2019-03-10T22:03:39.338Z,101139.38
2019-03-10T22:07:02.951Z,101141.23
2019-03-10T22:10:27.993Z,101137.78
2019-03-10T22:13:51.673Z,101119.15
2019-03-10T22:17:14.876Z,101136.13
2019-03-10T22:20:38.120Z,101126.30
2019-03-10T22:24:03.192Z,101127.38
2019-03-10T22:27:26.561Z,101128.68
2019-03-10T22:30:49.671Z,101126.84
2019-03-10T22:34:13.765Z,101128.36
2019-03-10T22:37:37.583Z,101114.70
2019-03-10T22:41:01.185Z,101118.16
2019-03-10T22:44:26.478Z,101129.16
2019-03-10T22:47:49.771Z,101129.56
2019-03-10T22:51:12.900Z,101131.61
2019-03-10T22:54:36.083Z,101121.21
2019-03-10T22:57:59.534Z,101124.23
2019-03-10T23:01:22.767Z,101117.38
2019-03-10T23:04:46.284Z,101110.50
2019-03-10T23:08:10.148Z,101107.91
2019-03-10T23:11:33.418Z,101123.14
2019-03-10T23:14:56.748Z,101119.58
2019-03-10T23:18:20.059Z,101143.92
2019-03-10T23:21:43.122Z,101130.62
2019-03-10T23:25:06.722Z,101127.52
2019-03-10T23:28:30.254Z,101116.81
2019-03-10T23:31:53.618Z,101098.44
2019-03-10T23:35:16.734Z,101105.83
2019-03-10T23:38:39.854Z,101107.33
2019-03-10T23:42:02.922Z,101083.83
2019-03-10T23:45:26.179Z,101086.72
2019-03-10T23:48:49.314Z,101065.06
2019-03-10T23:52:12.406Z,101064.77
2019-03-10T23:55:35.835Z,101061.30
2019-03-10T23:58:58.978Z,101049.91
